sensor_id;sensor_type;location;lat;lon;timestamp;P1;durP1;ratioP1;P2;durP2;ratioP2
34984;SDS011;21190;58.750;17.004;2023-03-16T00:02:22;1.67;;;0.50;;
34984;SDS011;21190;58.750;17.004;2023-03-16T00:04:49;2.38;;;0.45;;
34984;SDS011;21190;58.750;17.004;2023-03-16T00:07:16;0.90;;;0.60;;
34984;SDS011;21190;58.750;17.004;2023-03-16T00:09:45;1.70;;;0.60;;
34984;SDS011;21190;58.750;17.004;2023-03-16T00:12:13;2.42;;;0.70;;
34984;SDS011;21190;58.750;17.004;2023-03-16T00:14:42;1.48;;;0.50;;
34984;SDS011;21190;58.750;17.004;2023-03-16T00:17:14;2.30;;;0.45;;
34984;SDS011;21190;58.750;17.004;2023-03-16T00:19:50;1.33;;;0.40;;
34984;SDS011;21190;58.750;17.004;2023-03-16T00:22:21;3.22;;;0.57;;
34984;SDS011;21190;58.750;17.004;2023-03-16T00:24:49;1.27;;;0.50;;
34984;SDS011;21190;58.750;17.004;2023-03-16T00:27:18;2.35;;;0.63;;
34984;SDS011;21190;58.750;17.004;2023-03-16T00:29:45;1.92;;;0.60;;
34984;SDS011;21190;58.750;17.004;2023-03-16T00:32:14;3.30;;;0.52;;
34984;SDS011;21190;58.750;17.004;2023-03-16T00:34:45;11.40;;;2.00;;
34984;SDS011;21190;58.750;17.004;2023-03-16T00:37:14;1.27;;;0.40;;
34984;SDS011;21190;58.750;17.004;2023-03-16T00:39:43;2.78;;;0.50;;
34984;SDS011;21190;58.750;17.004;2023-03-16T00:42:12;5.10;;;0.40;;
34984;SDS011;21190;58.750;17.004;2023-03-16T00:44:40;0.30;;;0.28;;
34984;SDS011;21190;58.750;17.004;2023-03-16T00:47:07;1.58;;;0.60;;
34984;SDS011;21190;58.750;17.004;2023-03-16T00:49:34;0.70;;;0.50;;
34984;SDS011;21190;58.750;17.004;2023-03-16T00:52:02;4.03;;;0.60;;
34984;SDS011;21190;58.750;17.004;2023-03-16T00:54:31;1.17;;;0.30;;
34984;SDS011;21190;58.750;17.004;2023-03-16T00:56:58;2.67;;;1.23;;
34984;SDS011;21190;58.750;17.004;2023-03-16T00:59:26;2.20;;;0.60;;
34984;SDS011;21190;58.750;17.004;2023-03-16T01:01:54;2.03;;;0.60;;
34984;SDS011;21190;58.750;17.004;2023-03-16T01:04:21;1.60;;;0.50;;
34984;SDS011;21190;58.750;17.004;2023-03-16T01:06:48;2.05;;;0.52;;
34984;SDS011;21190;58.750;17.004;2023-03-16T01:09:15;3.28;;;0.40;;
34984;SDS011;21190;58.750;17.004;2023-03-16T01:11:42;1.33;;;0.60;;
34984;SDS011;21190;58.750;17.004;2023-03-16T01:14:09;1.33;;;0.55;;
34984;SDS011;21190;58.750;17.004;2023-03-16T01:16:36;1.10;;;0.50;;
34984;SDS011;21190;58.750;17.004;2023-03-16T01:19:03;1.20;;;0.55;;
34984;SDS011;21190;58.750;17.004;2023-03-16T01:21:30;1.38;;;0.77;;
34984;SDS011;21190;58.750;17.004;2023-03-16T01:23:59;3.75;;;0.82;;
34984;SDS011;21190;58.750;17.004;2023-03-16T01:26:26;0.80;;;0.55;;
34984;SDS011;21190;58.750;17.004;2023-03-16T01:28:53;1.75;;;0.60;;
34984;SDS011;21190;58.750;17.004;2023-03-16T01:31:20;3.83;;;0.70;;
34984;SDS011;21190;58.750;17.004;2023-03-16T01:33:47;2.75;;;0.80;;
34984;SDS011;21190;58.750;17.004;2023-03-16T01:36:15;5.10;;;1.00;;
34984;SDS011;21190;58.750;17.004;2023-03-16T01:38:43;1.23;;;0.60;;
34984;SDS011;21190;58.750;17.004;2023-03-16T01:41:11;2.05;;;0.80;;
34984;SDS011;21190;58.750;17.004;2023-03-16T01:43:39;3.53;;;0.90;;
34984;SDS011;21190;58.750;17.004;2023-03-16T01:46:21;1.48;;;0.50;;
34984;SDS011;21190;58.750;17.004;2023-03-16T01:49:01;3.03;;;0.90;;
34984;SDS011;21190;58.750;17.004;2023-03-16T01:51:46;1.40;;;1.00;;
34984;SDS011;21190;58.750;17.004;2023-03-16T02:02:10;2.80;;;0.80;;
34984;SDS011;21190;58.750;17.004;2023-03-16T02:07:22;2.33;;;0.68;;
34984;SDS011;21190;58.750;17.004;2023-03-16T02:09:52;1.80;;;1.45;;
34984;SDS011;21190;58.750;17.004;2023-03-16T02:12:23;2.97;;;0.80;;
34984;SDS011;21190;58.750;17.004;2023-03-16T02:14:50;4.03;;;0.60;;
34984;SDS011;21190;58.750;17.004;2023-03-16T02:17:19;1.38;;;0.98;;
34984;SDS011;21190;58.750;17.004;2023-03-16T02:22:47;4.47;;;0.85;;
34984;SDS011;21190;58.750;17.004;2023-03-16T02:25:16;4.05;;;1.30;;
34984;SDS011;21190;58.750;17.004;2023-03-16T02:30:46;6.68;;;1.13;;
34984;SDS011;21190;58.750;17.004;2023-03-16T02:33:14;3.60;;;1.15;;
34984;SDS011;21190;58.750;17.004;2023-03-16T02:35:43;2.83;;;0.88;;
34984;SDS011;21190;58.750;17.004;2023-03-16T02:38:11;2.83;;;0.80;;
34984;SDS011;21190;58.750;17.004;2023-03-16T02:40:38;2.40;;;0.80;;
34984;SDS011;21190;58.750;17.004;2023-03-16T02:43:05;0.70;;;0.57;;
34984;SDS011;21190;58.750;17.004;2023-03-16T02:45:53;2.35;;;0.88;;
34984;SDS011;21190;58.750;17.004;2023-03-16T02:48:24;2.67;;;0.70;;
34984;SDS011;21190;58.750;17.004;2023-03-16T02:50:55;1.95;;;0.80;;
34984;SDS011;21190;58.750;17.004;2023-03-16T02:53:22;1.30;;;0.60;;
34984;SDS011;21190;58.750;17.004;2023-03-16T02:55:49;2.80;;;1.00;;
34984;SDS011;21190;58.750;17.004;2023-03-16T02:58:16;4.15;;;0.88;;
34984;SDS011;21190;58.750;17.004;2023-03-16T03:00:43;2.72;;;0.80;;
34984;SDS011;21190;58.750;17.004;2023-03-16T03:03:11;2.65;;;1.20;;
34984;SDS011;21190;58.750;17.004;2023-03-16T03:05:39;4.78;;;1.20;;
34984;SDS011;21190;58.750;17.004;2023-03-16T03:08:06;7.95;;;0.98;;
34984;SDS011;21190;58.750;17.004;2023-03-16T03:10:33;0.90;;;0.75;;
34984;SDS011;21190;58.750;17.004;2023-03-16T03:13:00;4.68;;;0.85;;
34984;SDS011;21190;58.750;17.004;2023-03-16T03:15:27;3.00;;;0.82;;
34984;SDS011;21190;58.750;17.004;2023-03-16T03:17:54;4.95;;;0.85;;
34984;SDS011;21190;58.750;17.004;2023-03-16T03:20:21;3.30;;;0.80;;
34984;SDS011;21190;58.750;17.004;2023-03-16T03:22:48;4.10;;;1.00;;
34984;SDS011;21190;58.750;17.004;2023-03-16T03:25:18;1.75;;;0.68;;
34984;SDS011;21190;58.750;17.004;2023-03-16T03:27:46;2.45;;;0.90;;
34984;SDS011;21190;58.750;17.004;2023-03-16T03:30:16;5.07;;;0.90;;
34984;SDS011;21190;58.750;17.004;2023-03-16T03:32:44;3.25;;;0.80;;
34984;SDS011;21190;58.750;17.004;2023-03-16T03:35:12;4.15;;;0.77;;
34984;SDS011;21190;58.750;17.004;2023-03-16T03:37:40;1.25;;;0.70;;
34984;SDS011;21190;58.750;17.004;2023-03-16T03:40:10;1.38;;;0.70;;
34984;SDS011;21190;58.750;17.004;2023-03-16T03:42:39;4.75;;;0.80;;
34984;SDS011;21190;58.750;17.004;2023-03-16T03:45:07;5.68;;;0.73;;
34984;SDS011;21190;58.750;17.004;2023-03-16T03:47:38;3.80;;;0.98;;
34984;SDS011;21190;58.750;17.004;2023-03-16T03:50:06;1.33;;;0.80;;
34984;SDS011;21190;58.750;17.004;2023-03-16T03:52:34;1.63;;;0.90;;
34984;SDS011;21190;58.750;17.004;2023-03-16T03:55:00;5.53;;;0.85;;
34984;SDS011;21190;58.750;17.004;2023-03-16T03:57:27;4.18;;;0.73;;
34984;SDS011;21190;58.750;17.004;2023-03-16T03:59:54;5.68;;;0.90;;
34984;SDS011;21190;58.750;17.004;2023-03-16T04:02:21;1.42;;;0.70;;
34984;SDS011;21190;58.750;17.004;2023-03-16T04:04:48;1.80;;;0.80;;
34984;SDS011;21190;58.750;17.004;2023-03-16T04:07:15;6.38;;;0.98;;
34984;SDS011;21190;58.750;17.004;2023-03-16T04:09:42;3.92;;;0.93;;
34984;SDS011;21190;58.750;17.004;2023-03-16T04:12:09;6.10;;;1.65;;
34984;SDS011;21190;58.750;17.004;2023-03-16T04:14:37;2.65;;;1.00;;
34984;SDS011;21190;58.750;17.004;2023-03-16T04:17:04;4.07;;;1.20;;
34984;SDS011;21190;58.750;17.004;2023-03-16T04:19:31;2.03;;;0.80;;
34984;SDS011;21190;58.750;17.004;2023-03-16T04:21:58;2.58;;;0.95;;
34984;SDS011;21190;58.750;17.004;2023-03-16T04:24:25;2.10;;;0.80;;
34984;SDS011;21190;58.750;17.004;2023-03-16T04:26:52;4.78;;;0.90;;
34984;SDS011;21190;58.750;17.004;2023-03-16T04:29:19;5.70;;;1.83;;
34984;SDS011;21190;58.750;17.004;2023-03-16T04:31:46;6.93;;;1.20;;
34984;SDS011;21190;58.750;17.004;2023-03-16T04:34:13;3.67;;;0.90;;
34984;SDS011;21190;58.750;17.004;2023-03-16T04:36:40;4.20;;;1.15;;
34984;SDS011;21190;58.750;17.004;2023-03-16T04:39:08;4.65;;;1.33;;
34984;SDS011;21190;58.750;17.004;2023-03-16T04:41:35;3.65;;;1.58;;
34984;SDS011;21190;58.750;17.004;2023-03-16T04:44:02;3.15;;;1.15;;
34984;SDS011;21190;58.750;17.004;2023-03-16T04:46:30;5.55;;;1.15;;
34984;SDS011;21190;58.750;17.004;2023-03-16T04:48:57;1.70;;;0.88;;
34984;SDS011;21190;58.750;17.004;2023-03-16T04:51:24;7.55;;;1.10;;
34984;SDS011;21190;58.750;17.004;2023-03-16T04:53:52;6.53;;;1.45;;
34984;SDS011;21190;58.750;17.004;2023-03-16T04:56:19;3.08;;;0.90;;
34984;SDS011;21190;58.750;17.004;2023-03-16T04:58:47;2.53;;;0.80;;
34984;SDS011;21190;58.750;17.004;2023-03-16T05:01:15;4.00;;;1.08;;
34984;SDS011;21190;58.750;17.004;2023-03-16T05:03:43;3.10;;;1.60;;
34984;SDS011;21190;58.750;17.004;2023-03-16T05:06:11;4.32;;;1.20;;
34984;SDS011;21190;58.750;17.004;2023-03-16T05:08:38;3.08;;;1.40;;
34984;SDS011;21190;58.750;17.004;2023-03-16T05:11:05;5.55;;;0.93;;
34984;SDS011;21190;58.750;17.004;2023-03-16T05:13:33;5.30;;;1.35;;
34984;SDS011;21190;58.750;17.004;2023-03-16T05:16:00;2.10;;;1.05;;
34984;SDS011;21190;58.750;17.004;2023-03-16T05:18:27;4.63;;;1.20;;
34984;SDS011;21190;58.750;17.004;2023-03-16T05:20:54;3.50;;;1.02;;
34984;SDS011;21190;58.750;17.004;2023-03-16T05:23:22;5.13;;;1.25;;
34984;SDS011;21190;58.750;17.004;2023-03-16T05:25:49;7.32;;;1.52;;
34984;SDS011;21190;58.750;17.004;2023-03-16T05:28:16;6.07;;;1.73;;
34984;SDS011;21190;58.750;17.004;2023-03-16T05:30:43;5.80;;;1.30;;
34984;SDS011;21190;58.750;17.004;2023-03-16T05:33:10;7.95;;;1.52;;
34984;SDS011;21190;58.750;17.004;2023-03-16T05:35:37;9.30;;;1.85;;
34984;SDS011;21190;58.750;17.004;2023-03-16T05:38:05;4.00;;;1.30;;
34984;SDS011;21190;58.750;17.004;2023-03-16T05:40:31;7.20;;;1.33;;
34984;SDS011;21190;58.750;17.004;2023-03-16T05:42:59;6.47;;;2.40;;
34984;SDS011;21190;58.750;17.004;2023-03-16T05:45:26;4.82;;;1.40;;
34984;SDS011;21190;58.750;17.004;2023-03-16T05:47:53;4.65;;;1.08;;
34984;SDS011;21190;58.750;17.004;2023-03-16T05:50:20;5.85;;;1.05;;
34984;SDS011;21190;58.750;17.004;2023-03-16T05:52:48;3.95;;;1.17;;
34984;SDS011;21190;58.750;17.004;2023-03-16T05:55:15;13.68;;;1.50;;
34984;SDS011;21190;58.750;17.004;2023-03-16T05:57:43;6.55;;;1.20;;
34984;SDS011;21190;58.750;17.004;2023-03-16T06:00:11;9.10;;;1.48;;
34984;SDS011;21190;58.750;17.004;2023-03-16T06:02:44;4.47;;;0.90;;
34984;SDS011;21190;58.750;17.004;2023-03-16T06:05:14;5.82;;;1.35;;
34984;SDS011;21190;58.750;17.004;2023-03-16T06:07:42;4.75;;;1.23;;
34984;SDS011;21190;58.750;17.004;2023-03-16T06:10:10;7.15;;;1.30;;
34984;SDS011;21190;58.750;17.004;2023-03-16T06:12:37;4.53;;;1.50;;
34984;SDS011;21190;58.750;17.004;2023-03-16T06:15:05;4.53;;;0.85;;
34984;SDS011;21190;58.750;17.004;2023-03-16T06:17:33;2.78;;;0.65;;
34984;SDS011;21190;58.750;17.004;2023-03-16T06:20:01;10.65;;;1.17;;
34984;SDS011;21190;58.750;17.004;2023-03-16T06:22:35;3.22;;;1.05;;
34984;SDS011;21190;58.750;17.004;2023-03-16T06:25:03;10.93;;;1.10;;
34984;SDS011;21190;58.750;17.004;2023-03-16T06:27:32;7.50;;;1.25;;
34984;SDS011;21190;58.750;17.004;2023-03-16T06:29:59;15.50;;;2.33;;
34984;SDS011;21190;58.750;17.004;2023-03-16T06:32:26;3.45;;;1.02;;
34984;SDS011;21190;58.750;17.004;2023-03-16T06:34:53;7.95;;;1.30;;
34984;SDS011;21190;58.750;17.004;2023-03-16T06:37:20;8.93;;;1.20;;
34984;SDS011;21190;58.750;17.004;2023-03-16T06:39:47;4.03;;;1.05;;
34984;SDS011;21190;58.750;17.004;2023-03-16T06:42:14;4.07;;;1.20;;
34984;SDS011;21190;58.750;17.004;2023-03-16T06:44:41;8.98;;;1.13;;
34984;SDS011;21190;58.750;17.004;2023-03-16T06:47:08;6.13;;;1.08;;
34984;SDS011;21190;58.750;17.004;2023-03-16T06:49:35;6.60;;;1.10;;
34984;SDS011;21190;58.750;17.004;2023-03-16T06:52:02;2.03;;;0.80;;
34984;SDS011;21190;58.750;17.004;2023-03-16T06:54:29;6.55;;;1.38;;
34984;SDS011;21190;58.750;17.004;2023-03-16T06:56:59;5.57;;;1.58;;
34984;SDS011;21190;58.750;17.004;2023-03-16T06:59:26;9.65;;;1.13;;
34984;SDS011;21190;58.750;17.004;2023-03-16T07:01:54;7.45;;;1.05;;
34984;SDS011;21190;58.750;17.004;2023-03-16T07:04:21;3.33;;;1.08;;
34984;SDS011;21190;58.750;17.004;2023-03-16T07:06:48;7.38;;;1.13;;
34984;SDS011;21190;58.750;17.004;2023-03-16T07:09:15;5.38;;;1.10;;
34984;SDS011;21190;58.750;17.004;2023-03-16T07:11:42;8.00;;;0.82;;
34984;SDS011;21190;58.750;17.004;2023-03-16T07:14:10;5.25;;;1.63;;
34984;SDS011;21190;58.750;17.004;2023-03-16T07:16:37;4.32;;;1.35;;
34984;SDS011;21190;58.750;17.004;2023-03-16T07:19:04;8.70;;;1.83;;
34984;SDS011;21190;58.750;17.004;2023-03-16T07:21:31;7.28;;;1.98;;
34984;SDS011;21190;58.750;17.004;2023-03-16T07:24:04;7.65;;;2.17;;
34984;SDS011;21190;58.750;17.004;2023-03-16T07:26:32;6.13;;;1.77;;
34984;SDS011;21190;58.750;17.004;2023-03-16T07:28:59;8.23;;;1.20;;
34984;SDS011;21190;58.750;17.004;2023-03-16T07:31:26;10.25;;;1.63;;
34984;SDS011;21190;58.750;17.004;2023-03-16T07:33:53;6.82;;;1.35;;
34984;SDS011;21190;58.750;17.004;2023-03-16T07:36:20;5.68;;;1.27;;
34984;SDS011;21190;58.750;17.004;2023-03-16T07:38:47;10.85;;;1.17;;
34984;SDS011;21190;58.750;17.004;2023-03-16T07:41:14;8.52;;;1.05;;
34984;SDS011;21190;58.750;17.004;2023-03-16T07:43:41;6.75;;;1.92;;
34984;SDS011;21190;58.750;17.004;2023-03-16T07:46:10;18.52;;;1.60;;
34984;SDS011;21190;58.750;17.004;2023-03-16T07:48:39;6.05;;;1.48;;
34984;SDS011;21190;58.750;17.004;2023-03-16T07:51:08;5.50;;;1.40;;
34984;SDS011;21190;58.750;17.004;2023-03-16T07:53:37;9.38;;;1.27;;
34984;SDS011;21190;58.750;17.004;2023-03-16T07:56:05;11.57;;;1.30;;
34984;SDS011;21190;58.750;17.004;2023-03-16T07:58:32;9.02;;;1.20;;
34984;SDS011;21190;58.750;17.004;2023-03-16T08:00:59;7.20;;;1.83;;
34984;SDS011;21190;58.750;17.004;2023-03-16T08:03:27;5.35;;;1.40;;
34984;SDS011;21190;58.750;17.004;2023-03-16T08:05:54;4.20;;;2.13;;
34984;SDS011;21190;58.750;17.004;2023-03-16T08:08:21;7.15;;;1.10;;
34984;SDS011;21190;58.750;17.004;2023-03-16T08:10:49;4.45;;;1.25;;
34984;SDS011;21190;58.750;17.004;2023-03-16T08:13:21;5.57;;;1.42;;
34984;SDS011;21190;58.750;17.004;2023-03-16T08:15:49;4.20;;;1.23;;
34984;SDS011;21190;58.750;17.004;2023-03-16T08:18:36;9.38;;;1.92;;
34984;SDS011;21190;58.750;17.004;2023-03-16T08:21:03;10.80;;;1.15;;
34984;SDS011;21190;58.750;17.004;2023-03-16T08:23:30;7.82;;;1.42;;
34984;SDS011;21190;58.750;17.004;2023-03-16T08:25:58;7.18;;;1.42;;
34984;SDS011;21190;58.750;17.004;2023-03-16T08:28:26;6.07;;;1.25;;
34984;SDS011;21190;58.750;17.004;2023-03-16T08:30:53;1.90;;;1.30;;
34984;SDS011;21190;58.750;17.004;2023-03-16T08:33:20;6.07;;;1.30;;
34984;SDS011;21190;58.750;17.004;2023-03-16T08:35:48;5.38;;;1.40;;
34984;SDS011;21190;58.750;17.004;2023-03-16T08:38:16;8.85;;;1.65;;
34984;SDS011;21190;58.750;17.004;2023-03-16T08:40:44;4.82;;;1.52;;
34984;SDS011;21190;58.750;17.004;2023-03-16T08:43:14;5.53;;;2.13;;
34984;SDS011;21190;58.750;17.004;2023-03-16T08:45:45;5.22;;;1.48;;
34984;SDS011;21190;58.750;17.004;2023-03-16T08:48:13;4.28;;;1.67;;
34984;SDS011;21190;58.750;17.004;2023-03-16T08:50:40;9.48;;;1.67;;
34984;SDS011;21190;58.750;17.004;2023-03-16T08:53:09;18.52;;;2.17;;
34984;SDS011;21190;58.750;17.004;2023-03-16T08:55:39;15.23;;;1.55;;
34984;SDS011;21190;58.750;17.004;2023-03-16T08:58:07;12.52;;;2.03;;
34984;SDS011;21190;58.750;17.004;2023-03-16T09:00:35;9.05;;;2.15;;
34984;SDS011;21190;58.750;17.004;2023-03-16T09:03:03;2.10;;;0.93;;
34984;SDS011;21190;58.750;17.004;2023-03-16T09:05:31;6.53;;;1.50;;
34984;SDS011;21190;58.750;17.004;2023-03-16T09:07:58;4.43;;;1.23;;
34984;SDS011;21190;58.750;17.004;2023-03-16T09:10:25;11.10;;;1.98;;
34984;SDS011;21190;58.750;17.004;2023-03-16T09:12:53;10.27;;;1.90;;
34984;SDS011;21190;58.750;17.004;2023-03-16T09:15:20;6.60;;;1.52;;
34984;SDS011;21190;58.750;17.004;2023-03-16T09:17:47;6.88;;;1.50;;
34984;SDS011;21190;58.750;17.004;2023-03-16T09:20:15;9.50;;;1.40;;
34984;SDS011;21190;58.750;17.004;2023-03-16T09:22:51;4.95;;;0.95;;
34984;SDS011;21190;58.750;17.004;2023-03-16T09:25:19;3.47;;;1.45;;
34984;SDS011;21190;58.750;17.004;2023-03-16T09:27:47;4.13;;;1.10;;
34984;SDS011;21190;58.750;17.004;2023-03-16T09:30:14;7.63;;;1.52;;
34984;SDS011;21190;58.750;17.004;2023-03-16T09:32:42;7.20;;;1.77;;
34984;SDS011;21190;58.750;17.004;2023-03-16T09:35:10;10.65;;;1.63;;
34984;SDS011;21190;58.750;17.004;2023-03-16T09:37:37;11.80;;;1.80;;
34984;SDS011;21190;58.750;17.004;2023-03-16T09:40:22;3.70;;;1.70;;
34984;SDS011;21190;58.750;17.004;2023-03-16T09:43:25;2.50;;;1.40;;
34984;SDS011;21190;58.750;17.004;2023-03-16T09:46:31;2.90;;;1.20;;
34984;SDS011;21190;58.750;17.004;2023-03-16T09:48:34;5.30;;;1.23;;
34984;SDS011;21190;58.750;17.004;2023-03-16T09:51:04;7.55;;;1.42;;
34984;SDS011;21190;58.750;17.004;2023-03-16T09:53:34;8.93;;;1.50;;
34984;SDS011;21190;58.750;17.004;2023-03-16T09:56:09;6.45;;;1.30;;
34984;SDS011;21190;58.750;17.004;2023-03-16T09:58:40;5.93;;;1.33;;
34984;SDS011;21190;58.750;17.004;2023-03-16T10:01:32;6.57;;;1.95;;
34984;SDS011;21190;58.750;17.004;2023-03-16T10:04:35;4.28;;;1.60;;
34984;SDS011;21190;58.750;17.004;2023-03-16T10:07:20;5.75;;;1.58;;
34984;SDS011;21190;58.750;17.004;2023-03-16T10:12:37;5.55;;;1.30;;
34984;SDS011;21190;58.750;17.004;2023-03-16T10:15:09;4.00;;;1.48;;
34984;SDS011;21190;58.750;17.004;2023-03-16T10:20:45;5.47;;;2.15;;
34984;SDS011;21190;58.750;17.004;2023-03-16T10:23:17;7.93;;;1.30;;
34984;SDS011;21190;58.750;17.004;2023-03-16T10:25:50;8.15;;;2.00;;
34984;SDS011;21190;58.750;17.004;2023-03-16T10:28:20;4.25;;;1.40;;
34984;SDS011;21190;58.750;17.004;2023-03-16T10:30:50;8.45;;;1.70;;
34984;SDS011;21190;58.750;17.004;2023-03-16T10:33:23;5.82;;;1.63;;
34984;SDS011;21190;58.750;17.004;2023-03-16T10:36:03;9.77;;;1.80;;
34984;SDS011;21190;58.750;17.004;2023-03-16T10:41:26;3.78;;;1.58;;
34984;SDS011;21190;58.750;17.004;2023-03-16T10:44:02;8.02;;;1.50;;
34984;SDS011;21190;58.750;17.004;2023-03-16T10:46:41;5.18;;;1.55;;
34984;SDS011;21190;58.750;17.004;2023-03-16T10:49:26;34.50;;;1.95;;
34984;SDS011;21190;58.750;17.004;2023-03-16T10:51:54;6.15;;;1.77;;
34984;SDS011;21190;58.750;17.004;2023-03-16T10:54:29;5.53;;;1.45;;
34984;SDS011;21190;58.750;17.004;2023-03-16T10:57:12;4.82;;;1.67;;
34984;SDS011;21190;58.750;17.004;2023-03-16T10:59:59;10.68;;;2.85;;
34984;SDS011;21190;58.750;17.004;2023-03-16T11:02:35;6.68;;;1.50;;
34984;SDS011;21190;58.750;17.004;2023-03-16T11:05:24;5.55;;;1.52;;
34984;SDS011;21190;58.750;17.004;2023-03-16T11:10:38;11.07;;;3.05;;
34984;SDS011;21190;58.750;17.004;2023-03-16T11:13:21;3.28;;;1.25;;
34984;SDS011;21190;58.750;17.004;2023-03-16T11:18:42;3.90;;;1.23;;
34984;SDS011;21190;58.750;17.004;2023-03-16T11:21:17;6.67;;;1.73;;
34984;SDS011;21190;58.750;17.004;2023-03-16T11:24:09;6.35;;;1.75;;
34984;SDS011;21190;58.750;17.004;2023-03-16T11:26:45;5.10;;;1.55;;
34984;SDS011;21190;58.750;17.004;2023-03-16T11:31:55;4.93;;;1.80;;
34984;SDS011;21190;58.750;17.004;2023-03-16T11:34:27;8.43;;;1.73;;
34984;SDS011;21190;58.750;17.004;2023-03-16T11:42:38;4.80;;;1.20;;
34984;SDS011;21190;58.750;17.004;2023-03-16T11:48:18;4.55;;;1.00;;
34984;SDS011;21190;58.750;17.004;2023-03-16T12:01:22;11.00;;;1.60;;
34984;SDS011;21190;58.750;17.004;2023-03-16T12:10:02;7.22;;;1.95;;
34984;SDS011;21190;58.750;17.004;2023-03-16T12:12:54;5.72;;;1.52;;
34984;SDS011;21190;58.750;17.004;2023-03-16T12:15:33;3.22;;;1.02;;
34984;SDS011;21190;58.750;17.004;2023-03-16T12:18:10;6.43;;;1.27;;
34984;SDS011;21190;58.750;17.004;2023-03-16T12:20:57;3.05;;;1.02;;
34984;SDS011;21190;58.750;17.004;2023-03-16T12:23:31;5.80;;;1.05;;
34984;SDS011;21190;58.750;17.004;2023-03-16T12:26:15;7.05;;;1.48;;
34984;SDS011;21190;58.750;17.004;2023-03-16T12:28:43;3.78;;;1.30;;
34984;SDS011;21190;58.750;17.004;2023-03-16T12:39:24;4.22;;;0.90;;
34984;SDS011;21190;58.750;17.004;2023-03-16T12:41:58;4.85;;;1.30;;
34984;SDS011;21190;58.750;17.004;2023-03-16T12:44:48;8.82;;;1.42;;
34984;SDS011;21190;58.750;17.004;2023-03-16T12:47:31;7.40;;;1.80;;
34984;SDS011;21190;58.750;17.004;2023-03-16T12:50:10;4.55;;;1.40;;
34984;SDS011;21190;58.750;17.004;2023-03-16T12:52:42;6.32;;;1.00;;
34984;SDS011;21190;58.750;17.004;2023-03-16T12:57:47;5.05;;;1.10;;
34984;SDS011;21190;58.750;17.004;2023-03-16T13:00:16;5.43;;;1.35;;
34984;SDS011;21190;58.750;17.004;2023-03-16T13:02:53;8.65;;;1.30;;
34984;SDS011;21190;58.750;17.004;2023-03-16T13:05:29;8.60;;;1.20;;
34984;SDS011;21190;58.750;17.004;2023-03-16T13:08:11;6.38;;;0.95;;
34984;SDS011;21190;58.750;17.004;2023-03-16T13:10:41;3.67;;;1.10;;
34984;SDS011;21190;58.750;17.004;2023-03-16T13:13:24;10.52;;;1.70;;
34984;SDS011;21190;58.750;17.004;2023-03-16T13:16:00;5.07;;;1.40;;
34984;SDS011;21190;58.750;17.004;2023-03-16T13:18:41;7.95;;;1.42;;
34984;SDS011;21190;58.750;17.004;2023-03-16T13:21:17;3.90;;;1.48;;
34984;SDS011;21190;58.750;17.004;2023-03-16T13:23:53;3.58;;;1.40;;
34984;SDS011;21190;58.750;17.004;2023-03-16T13:29:23;7.05;;;1.05;;
34984;SDS011;21190;58.750;17.004;2023-03-16T13:31:55;5.13;;;1.10;;
34984;SDS011;21190;58.750;17.004;2023-03-16T13:34:30;2.88;;;0.98;;
34984;SDS011;21190;58.750;17.004;2023-03-16T13:37:01;6.88;;;1.90;;
34984;SDS011;21190;58.750;17.004;2023-03-16T13:39:28;6.57;;;1.35;;
34984;SDS011;21190;58.750;17.004;2023-03-16T13:44:30;5.15;;;1.00;;
34984;SDS011;21190;58.750;17.004;2023-03-16T13:47:04;12.02;;;1.23;;
34984;SDS011;21190;58.750;17.004;2023-03-16T13:49:32;5.47;;;1.30;;
34984;SDS011;21190;58.750;17.004;2023-03-16T13:52:28;4.72;;;1.20;;
34984;SDS011;21190;58.750;17.004;2023-03-16T13:54:57;3.75;;;0.85;;
34984;SDS011;21190;58.750;17.004;2023-03-16T13:57:29;5.63;;;1.17;;
34984;SDS011;21190;58.750;17.004;2023-03-16T14:02:44;10.23;;;1.27;;
34984;SDS011;21190;58.750;17.004;2023-03-16T14:05:20;6.47;;;1.65;;
34984;SDS011;21190;58.750;17.004;2023-03-16T14:07:56;4.15;;;1.02;;
34984;SDS011;21190;58.750;17.004;2023-03-16T14:10:27;3.78;;;1.30;;
34984;SDS011;21190;58.750;17.004;2023-03-16T14:13:08;8.48;;;1.88;;
34984;SDS011;21190;58.750;17.004;2023-03-16T14:15:49;2.13;;;0.90;;
34984;SDS011;21190;58.750;17.004;2023-03-16T14:18:17;4.20;;;1.33;;
34984;SDS011;21190;58.750;17.004;2023-03-16T14:20:53;2.88;;;1.08;;
34984;SDS011;21190;58.750;17.004;2023-03-16T14:23:27;7.07;;;1.75;;
34984;SDS011;21190;58.750;17.004;2023-03-16T14:25:59;9.88;;;1.48;;
34984;SDS011;21190;58.750;17.004;2023-03-16T14:28:30;2.53;;;1.10;;
34984;SDS011;21190;58.750;17.004;2023-03-16T14:31:11;2.90;;;1.05;;
34984;SDS011;21190;58.750;17.004;2023-03-16T14:33:44;4.85;;;1.10;;
34984;SDS011;21190;58.750;17.004;2023-03-16T14:36:12;5.18;;;1.65;;
34984;SDS011;21190;58.750;17.004;2023-03-16T14:38:45;8.60;;;1.42;;
34984;SDS011;21190;58.750;17.004;2023-03-16T14:43:54;3.92;;;0.90;;
34984;SDS011;21190;58.750;17.004;2023-03-16T14:46:29;5.05;;;1.20;;
34984;SDS011;21190;58.750;17.004;2023-03-16T14:49:01;3.25;;;1.48;;
34984;SDS011;21190;58.750;17.004;2023-03-16T14:51:43;2.15;;;1.00;;
34984;SDS011;21190;58.750;17.004;2023-03-16T14:54:13;2.25;;;1.00;;
34984;SDS011;21190;58.750;17.004;2023-03-16T14:56:41;4.18;;;1.50;;
34984;SDS011;21190;58.750;17.004;2023-03-16T14:59:12;6.40;;;1.42;;
34984;SDS011;21190;58.750;17.004;2023-03-16T15:01:39;3.20;;;1.10;;
34984;SDS011;21190;58.750;17.004;2023-03-16T15:04:06;4.78;;;1.10;;
34984;SDS011;21190;58.750;17.004;2023-03-16T15:06:33;12.43;;;1.60;;
34984;SDS011;21190;58.750;17.004;2023-03-16T15:09:00;3.65;;;1.27;;
34984;SDS011;21190;58.750;17.004;2023-03-16T15:11:28;2.33;;;0.98;;
34984;SDS011;21190;58.750;17.004;2023-03-16T15:13:57;5.03;;;1.38;;
34984;SDS011;21190;58.750;17.004;2023-03-16T15:16:39;6.40;;;1.45;;
34984;SDS011;21190;58.750;17.004;2023-03-16T15:19:09;5.15;;;1.52;;
34984;SDS011;21190;58.750;17.004;2023-03-16T15:21:37;2.95;;;1.25;;
34984;SDS011;21190;58.750;17.004;2023-03-16T15:24:04;6.90;;;1.42;;
34984;SDS011;21190;58.750;17.004;2023-03-16T15:26:31;7.50;;;1.30;;
34984;SDS011;21190;58.750;17.004;2023-03-16T15:28:58;7.63;;;1.30;;
34984;SDS011;21190;58.750;17.004;2023-03-16T15:31:25;9.75;;;1.30;;
34984;SDS011;21190;58.750;17.004;2023-03-16T15:33:52;3.40;;;1.45;;
34984;SDS011;21190;58.750;17.004;2023-03-16T15:36:20;5.80;;;1.15;;
34984;SDS011;21190;58.750;17.004;2023-03-16T15:38:49;8.10;;;1.73;;
34984;SDS011;21190;58.750;17.004;2023-03-16T15:41:18;10.65;;;1.67;;
34984;SDS011;21190;58.750;17.004;2023-03-16T15:43:45;11.20;;;1.67;;
34984;SDS011;21190;58.750;17.004;2023-03-16T15:46:12;17.27;;;2.42;;
34984;SDS011;21190;58.750;17.004;2023-03-16T15:48:40;19.77;;;1.98;;
34984;SDS011;21190;58.750;17.004;2023-03-16T15:51:11;4.38;;;1.05;;
34984;SDS011;21190;58.750;17.004;2023-03-16T15:53:52;20.50;;;1.92;;
34984;SDS011;21190;58.750;17.004;2023-03-16T15:56:25;12.43;;;2.25;;
34984;SDS011;21190;58.750;17.004;2023-03-16T15:58:59;8.90;;;1.90;;
34984;SDS011;21190;58.750;17.004;2023-03-16T16:01:29;17.13;;;3.63;;
34984;SDS011;21190;58.750;17.004;2023-03-16T16:04:05;14.40;;;2.87;;
34984;SDS011;21190;58.750;17.004;2023-03-16T16:06:37;19.02;;;4.32;;
34984;SDS011;21190;58.750;17.004;2023-03-16T16:09:04;17.25;;;6.38;;
34984;SDS011;21190;58.750;17.004;2023-03-16T16:11:32;20.20;;;4.28;;
34984;SDS011;21190;58.750;17.004;2023-03-16T16:13:59;13.90;;;3.65;;